Time;durP1;ratioP1;P1;durP2;ratioP2;P2;SDS_P1;SDS_P2;PMS_P1;PMS_P2;Temp;Humidity;BMP_temperature;BMP_pressure;BME280_temperature;BME280_humidity;BME280_pressure;Samples;Min_cycle;Max_cycle;Signal;HPM_P1;HPM_P2
2022/11/23 00:01:31;;;;;;;0.75;0.70;;;;;;;4.55;43.95;90882.94;5090863;28;20028;-76
2022/11/23 00:04:00;;;;;;;0.70;0.70;;;;;;;4.48;44.10;90884.38;5089822;28;20048;-76
2022/11/23 00:06:26;;;;;;;0.73;0.63;;;;;;;4.38;45.49;90895.69;5089718;28;20149;-76
2022/11/23 00:08:52;;;;;;;0.60;0.60;;;;;;;4.32;45.30;90892.44;5089668;28;20036;-75
2022/11/23 00:11:20;;;;;;;0.95;0.70;;;;;;;4.30;44.32;90897.13;5089135;28;20040;-76
2022/11/23 00:13:46;;;;;;;1.58;0.90;;;;;;;4.31;43.92;90900.47;5090798;28;20032;-75
2022/11/23 00:16:21;;;;;;;0.75;0.70;;;;;;;4.30;43.83;90889.34;5089724;28;20063;-76
2022/11/23 00:18:47;;;;;;;0.80;0.80;;;;;;;4.31;43.59;90903.84;5089387;28;20032;-76
2022/11/23 00:21:17;;;;;;;1.20;0.80;;;;;;;4.31;43.97;90903.06;5089107;28;20055;-75
2022/11/23 00:23:43;;;;;;;0.82;0.65;;;;;;;4.31;43.80;90906.44;5090577;28;20572;-76
2022/11/23 00:26:10;;;;;;;0.50;0.50;;;;;;;4.34;43.11;90902.50;5089761;28;20537;-76
2022/11/23 00:28:39;;;;;;;0.50;0.50;;;;;;;4.42;42.81;90895.91;5089140;28;20482;-76
2022/11/23 00:31:17;;;;;;;0.98;0.55;;;;;;;4.49;42.77;90899.63;5089233;28;20127;-76
2022/11/23 00:33:48;;;;;;;0.90;0.80;;;;;;;4.46;42.98;90902.81;5076180;28;20070;-76
2022/11/23 00:36:15;;;;;;;0.60;0.60;;;;;;;4.42;42.79;90893.31;5093236;28;20040;-76
2022/11/23 00:38:42;;;;;;;0.90;0.55;;;;;;;4.42;43.06;90894.06;5093137;28;20107;-76
2022/11/23 00:41:14;;;;;;;0.50;0.50;;;;;;;4.40;42.85;90895.41;5093164;28;20063;-73
2022/11/23 00:43:39;;;;;;;0.63;0.50;;;;;;;4.38;43.02;90891.28;5093003;28;20028;-75
2022/11/23 00:46:14;;;;;;;0.60;0.60;;;;;;;4.38;42.41;90899.03;5093126;28;20036;-74
2022/11/23 00:48:45;;;;;;;0.50;0.50;;;;;;;4.49;42.11;90893.69;5076012;28;20572;-74
2022/11/23 00:51:14;;;;;;;1.75;0.60;;;;;;;4.48;41.78;90905.09;5092987;28;20088;-75
2022/11/23 00:53:41;;;;;;;0.82;0.70;;;;;;;4.50;41.76;90905.56;5091449;28;20048;-74
2022/11/23 00:56:07;;;;;;;0.50;0.50;;;;;;;4.50;41.63;90905.56;5092177;28;20557;-75
2022/11/23 00:58:33;;;;;;;0.68;0.68;;;;;;;4.55;41.78;90918.47;5092721;28;20036;-75
2022/11/23 01:01:04;;;;;;;0.60;0.60;;;;;;;4.63;41.52;90922.19;5092681;28;20047;-75
2022/11/23 01:03:33;;;;;;;1.17;0.90;;;;;;;4.61;42.16;90922.47;5093856;28;20699;-75
2022/11/23 01:06:09;;;;;;;0.50;0.50;;;;;;;4.61;42.20;90925.06;5092369;28;20490;-75
2022/11/23 01:08:36;;;;;;;0.40;0.40;;;;;;;4.62;41.35;90924.03;5092502;28;20040;-75
2022/11/23 01:11:05;;;;;;;0.77;0.63;;;;;;;4.67;41.47;90926.53;5075677;28;20039;-74
2022/11/23 01:13:35;;;;;;;0.60;0.60;;;;;;;4.65;42.03;90931.22;5092483;28;20173;-74
2022/11/23 01:16:00;;;;;;;0.52;0.43;;;;;;;4.64;41.89;90932.28;5092411;28;20686;-75
2022/11/23 01:18:26;;;;;;;0.68;0.68;;;;;;;4.61;41.66;90916.53;5093497;28;20092;-75
2022/11/23 01:20:53;;;;;;;0.82;0.55;;;;;;;4.61;41.41;90927.66;5093947;28;20493;-75
2022/11/23 01:23:18;;;;;;;0.60;0.60;;;;;;;4.61;41.73;90919.88;5092179;28;20028;-75
2022/11/23 01:25:44;;;;;;;0.50;0.50;;;;;;;4.66;41.32;90914.63;5093566;28;20028;-75
2022/11/23 01:28:10;;;;;;;0.60;0.60;;;;;;;4.65;41.69;90913.06;5092104;28;20587;-75
2022/11/23 01:30:35;;;;;;;1.05;0.55;;;;;;;4.70;41.23;90918.16;5092032;28;20109;-75
2022/11/23 01:33:02;;;;;;;0.57;0.57;;;;;;;4.71;41.37;90914.53;5074945;28;20051;-75
2022/11/23 01:35:28;;;;;;;3.58;0.40;;;;;;;4.67;41.47;90916.16;5092090;28;20062;-75
2022/11/23 01:37:53;;;;;;;0.63;0.60;;;;;;;4.67;41.48;90916.16;5092044;28;20040;-75
2022/11/23 01:40:19;;;;;;;0.60;0.60;;;;;;;4.65;41.33;90925.28;5091954;28;20032;-75
2022/11/23 01:42:51;;;;;;;0.60;0.60;;;;;;;4.60;41.36;90920.94;5092995;28;20038;-75
2022/11/23 01:46:03;;;;;;;0.55;0.55;;;;;;;4.57;41.88;90921.50;5092482;28;20153;-75
2022/11/23 01:48:34;;;;;;;1.27;0.70;;;;;;;4.49;42.14;90922.19;5092432;28;20070;-75
2022/11/23 01:51:05;;;;;;;0.50;0.50;;;;;;;4.48;41.92;90920.63;5091620;28;20032;-75
2022/11/23 01:53:32;;;;;;;0.50;0.50;;;;;;;4.48;41.66;90921.44;5091378;28;20298;-75
2022/11/23 01:56:00;;;;;;;0.60;0.50;;;;;;;4.53;41.70;90930.94;5074873;28;20032;-75
2022/11/23 01:58:30;;;;;;;0.55;0.55;;;;;;;4.50;41.77;90923.72;5091717;28;20436;-74
2022/11/23 02:00:57;;;;;;;0.40;0.40;;;;;;;4.51;41.65;90925.28;5091518;28;20522;-74
2022/11/23 02:03:23;;;;;;;0.50;0.50;;;;;;;4.57;40.82;90918.91;5092811;28;20439;-75
2022/11/23 02:05:58;;;;;;;0.43;0.40;;;;;;;4.57;41.78;90937.06;5074702;28;20390;-76
2022/11/23 02:08:24;;;;;;;0.50;0.50;;;;;;;4.59;40.90;90940.13;5092310;28;20039;-75
2022/11/23 02:10:51;;;;;;;0.80;0.80;;;;;;;4.58;41.15;90948.97;5091286;28;20123;-75
2022/11/23 02:13:17;;;;;;;0.50;0.50;;;;;;;4.56;41.50;90951.09;5091206;28;20032;-75
2022/11/23 02:15:43;;;;;;;0.60;0.60;;;;;;;4.58;41.47;90964.53;5074511;28;20047;-75
2022/11/23 02:18:15;;;;;;;0.57;0.57;;;;;;;4.66;41.10;90957.91;5091244;28;20044;-75
2022/11/23 02:20:43;;;;;;;0.55;0.55;;;;;;;4.59;41.03;90950.50;5091065;28;20028;-75
2022/11/23 02:23:33;;;;;;;0.45;0.45;;;;;;;4.58;41.70;90969.72;5091181;28;20016;-75
2022/11/23 02:26:01;;;;;;;0.65;0.60;;;;;;;4.49;41.28;90964.41;5089903;28;20059;-75
2022/11/23 02:28:39;;;;;;;0.77;0.60;;;;;;;4.45;41.04;90976.41;5070717;28;20032;-75
2022/11/23 02:31:05;;;;;;;0.60;0.60;;;;;;;4.44;41.07;90976.69;5076644;28;20067;-75
2022/11/23 02:33:31;;;;;;;0.60;0.60;;;;;;;4.49;41.14;90976.59;5091974;28;20417;-75
2022/11/23 02:35:59;;;;;;;0.60;0.60;;;;;;;4.41;41.25;90975.44;5091792;28;20048;-76
2022/11/23 02:38:29;;;;;;;0.73;0.70;;;;;;;4.47;41.00;90963.16;5090815;28;20032;-74
2022/11/23 02:40:56;;;;;;;0.50;0.50;;;;;;;4.43;41.16;90973.31;5090847;28;20657;-74
2022/11/23 02:43:22;;;;;;;0.60;0.60;;;;;;;4.44;41.17;90971.53;5090815;28;20067;-74
2022/11/23 02:45:56;;;;;;;0.63;0.60;;;;;;;4.40;40.27;90973.13;5091960;28;20036;-75
2022/11/23 02:48:23;;;;;;;0.60;0.60;;;;;;;4.62;39.55;90968.09;5090663;28;20032;-75
2022/11/23 02:50:49;;;;;;;0.60;0.57;;;;;;;4.58;40.42;90964.53;5073760;28;20131;-75
2022/11/23 02:53:14;;;;;;;0.70;0.63;;;;;;;4.53;40.54;90973.16;5073315;28;20052;-75
2022/11/23 02:55:40;;;;;;;0.40;0.40;;;;;;;4.50;40.68;90971.16;5088541;28;20031;-75
2022/11/23 02:58:06;;;;;;;0.60;0.60;;;;;;;4.61;39.93;90970.97;5090351;28;20040;-75
2022/11/23 03:00:32;;;;;;;0.70;0.65;;;;;;;4.55;39.85;90965.09;5090447;28;20044;-75
2022/11/23 03:03:00;;;;;;;0.60;0.60;;;;;;;4.50;40.45;90973.75;5090463;28;20035;-75
2022/11/23 03:05:26;;;;;;;0.63;0.57;;;;;;;4.49;40.05;90979.97;5090314;28;20289;-75
2022/11/23 03:07:51;;;;;;;0.73;0.70;;;;;;;4.51;40.03;90975.25;5090249;28;20048;-75
2022/11/23 03:10:19;;;;;;;0.50;0.50;;;;;;;4.71;40.00;90984.50;5073802;28;20127;-75
2022/11/23 03:12:47;;;;;;;0.50;0.50;;;;;;;4.55;40.18;90971.06;5089971;28;20020;-75
2022/11/23 03:15:13;;;;;;;0.60;0.60;;;;;;;4.49;40.57;90972.19;5090216;28;20123;-75
2022/11/23 03:17:39;;;;;;;1.25;0.77;;;;;;;4.59;39.56;90966.06;5090071;28;20461;-75
2022/11/23 03:20:08;;;;;;;1.15;0.68;;;;;;;4.51;40.30;90962.31;5073329;28;20036;-75
2022/11/23 03:22:38;;;;;;;0.50;0.50;;;;;;;4.49;39.71;90955.88;5073658;28;20032;-75
2022/11/23 03:25:04;;;;;;;0.55;0.52;;;;;;;4.50;39.66;90965.97;5073214;28;20498;-75
2022/11/23 03:27:32;;;;;;;0.60;0.60;;;;;;;4.50;39.74;90962.59;5089791;28;20455;-75
2022/11/23 03:29:58;;;;;;;0.60;0.60;;;;;;;4.43;39.84;90975.16;5057012;28;20391;-76
2022/11/23 03:32:28;;;;;;;0.70;0.70;;;;;;;4.47;39.49;90968.34;5073520;28;20032;-76
2022/11/23 03:34:53;;;;;;;0.57;0.57;;;;;;;4.54;39.04;90963.56;5073077;28;20501;-75
2022/11/23 03:37:20;;;;;;;0.60;0.60;;;;;;;4.65;39.04;90970.09;5089715;28;20040;-74
2022/11/23 03:39:46;;;;;;;1.05;0.70;;;;;;;4.65;38.73;90970.09;5072771;28;20086;-74
2022/11/23 03:42:21;;;;;;;1.02;0.55;;;;;;;4.71;38.57;90965.59;5090235;28;20063;-74
2022/11/23 03:44:46;;;;;;;0.60;0.60;;;;;;;4.66;38.94;90966.47;5089783;28;20425;-75
2022/11/23 03:47:13;;;;;;;0.60;0.60;;;;;;;4.65;38.59;90964.16;5089214;28;20036;-75
2022/11/23 03:49:40;;;;;;;0.60;0.60;;;;;;;4.57;39.00;90970.75;5089772;28;20039;-74
2022/11/23 03:52:07;;;;;;;1.08;0.60;;;;;;;4.55;38.75;90959.94;5072886;28;20052;-75
2022/11/23 03:54:33;;;;;;;0.63;0.60;;;;;;;4.70;37.96;90951.09;5089127;28;20557;-75
2022/11/23 03:56:59;;;;;;;0.70;0.60;;;;;;;4.83;37.91;90960.72;5089224;28;20493;-75
2022/11/23 03:59:24;;;;;;;0.77;0.60;;;;;;;4.82;37.61;90969.56;5089597;28;20409;-75
2022/11/23 04:01:50;;;;;;;2.78;0.90;;;;;;;4.80;38.38;90967.25;5089563;28;20401;-75
2022/11/23 04:04:21;;;;;;;0.50;0.50;;;;;;;4.70;38.48;90966.66;5089579;28;20101;-75
2022/11/23 04:06:54;;;;;;;1.95;0.60;;;;;;;4.65;38.16;90964.91;5074542;28;20135;-75
2022/11/23 04:09:24;;;;;;;0.60;0.60;;;;;;;4.60;38.69;90967.59;5093688;28;20075;-75
2022/11/23 04:12:10;;;;;;;0.60;0.60;;;;;;;4.53;39.16;90964.63;5093195;28;20395;-75
2022/11/23 04:14:37;;;;;;;0.50;0.50;;;;;;;4.43;39.27;90972.56;5076576;28;20131;-75
2022/11/23 04:17:03;;;;;;;0.50;0.50;;;;;;;4.35;39.13;90966.97;5093392;28;20467;-75
2022/11/23 04:19:29;;;;;;;0.47;0.47;;;;;;;4.32;39.21;90964.97;5076748;28;20111;-75
2022/11/23 04:21:56;;;;;;;0.77;0.77;;;;;;;4.29;39.04;90962.16;5076642;28;20063;-75
2022/11/23 04:24:22;;;;;;;0.50;0.50;;;;;;;4.30;39.07;90956.72;5093342;28;20031;-74
2022/11/23 04:26:48;;;;;;;0.52;0.52;;;;;;;4.25;38.94;90967.13;5093406;28;20047;-75
2022/11/23 04:29:14;;;;;;;0.55;0.50;;;;;;;4.22;39.40;90959.94;5093876;28;20649;-75
2022/11/23 04:31:44;;;;;;;0.55;0.55;;;;;;;4.15;39.39;90956.97;5076391;28;20493;-75
2022/11/23 04:34:13;;;;;;;0.88;0.50;;;;;;;4.11;39.50;90961.16;5092962;28;20032;-75
2022/11/23 04:36:38;;;;;;;1.05;0.57;;;;;;;4.12;39.25;90970.44;5092315;28;20047;-75
2022/11/23 04:39:06;;;;;;;0.70;0.60;;;;;;;4.16;38.62;90963.66;5076036;28;20044;-75
2022/11/23 04:41:39;;;;;;;0.57;0.57;;;;;;;4.17;38.95;90970.41;5077277;28;20097;-74
2022/11/23 04:44:06;;;;;;;0.50;0.50;;;;;;;4.21;39.06;90961.00;5076212;28;20039;-75
2022/11/23 04:46:34;;;;;;;0.57;0.57;;;;;;;4.12;39.62;90957.50;5092826;28;20032;-74
2022/11/23 04:49:04;;;;;;;0.60;0.60;;;;;;;4.10;39.20;90946.69;5061069;28;20036;-75
2022/11/23 04:51:30;;;;;;;0.50;0.50;;;;;;;4.05;39.29;90955.28;5090703;28;20058;-74
2022/11/23 04:53:56;;;;;;;0.88;0.70;;;;;;;4.09;38.67;90953.66;5075545;28;20050;-75
2022/11/23 04:56:22;;;;;;;0.40;0.40;;;;;;;4.08;39.11;90953.97;5057439;28;20101;-74
2022/11/23 04:58:48;;;;;;;0.50;0.50;;;;;;;4.05;39.57;90951.94;5075822;28;20032;-74
2022/11/23 05:01:14;;;;;;;0.95;0.60;;;;;;;4.02;38.99;90957.69;5075812;28;20147;-74
2022/11/23 05:03:59;;;;;;;0.50;0.50;;;;;;;3.99;39.17;90948.66;5064921;28;20044;-75
2022/11/23 05:06:25;;;;;;;1.10;0.70;;;;;;;3.93;39.60;90947.97;5075933;28;20036;-75
2022/11/23 05:08:52;;;;;;;0.57;0.57;;;;;;;3.89;39.38;90961.75;5075493;28;20088;-76
2022/11/23 05:11:37;;;;;;;0.52;0.50;;;;;;;3.93;38.93;90962.72;5092536;28;20088;-75
2022/11/23 05:14:02;;;;;;;0.70;0.70;;;;;;;4.00;38.66;90959.78;5075679;28;20556;-75
2022/11/23 05:16:29;;;;;;;0.65;0.65;;;;;;;4.03;38.82;90954.03;5092469;28;20354;-75
2022/11/23 05:18:54;;;;;;;0.60;0.60;;;;;;;4.09;38.45;90952.91;5074498;28;20028;-76
2022/11/23 05:21:20;;;;;;;0.60;0.60;;;;;;;4.10;38.58;90952.63;5089469;28;20068;-75
2022/11/23 05:23:47;;;;;;;0.75;0.70;;;;;;;4.10;39.33;90959.63;5042901;28;20054;-75
2022/11/23 05:26:13;;;;;;;0.50;0.50;;;;;;;4.33;38.72;90958.72;5057946;28;20020;-75
2022/11/23 05:28:38;;;;;;;0.55;0.55;;;;;;;4.28;38.35;90961.41;5073886;28;20039;-75
2022/11/23 05:31:04;;;;;;;0.60;0.60;;;;;;;4.34;38.35;90962.84;5073236;28;20035;-75
2022/11/23 05:33:30;;;;;;;0.52;0.52;;;;;;;4.32;38.74;90969.34;5064501;28;20078;-75
2022/11/23 05:35:56;;;;;;;1.25;0.70;;;;;;;4.27;38.88;90967.63;5056968;28;20425;-75
2022/11/23 05:38:31;;;;;;;0.50;0.50;;;;;;;4.23;39.00;90956.28;5083633;28;20047;-73
2022/11/23 05:41:00;;;;;;;1.02;0.55;;;;;;;4.21;39.26;90961.00;5075639;28;20040;-74
2022/11/23 05:43:29;;;;;;;1.17;0.50;;;;;;;4.21;39.29;90968.00;5093583;28;20493;-74
2022/11/23 05:45:58;;;;;;;0.60;0.55;;;;;;;4.23;38.95;90974.41;5048193;28;20028;-76
2022/11/23 05:48:23;;;;;;;0.50;0.50;;;;;;;4.20;39.23;90980.19;5089949;28;20535;-73
2022/11/23 05:50:55;;;;;;;0.60;0.60;;;;;;;4.15;39.56;90982.84;5065534;28;20060;-74
2022/11/23 05:53:32;;;;;;;0.50;0.50;;;;;;;4.06;40.39;90979.38;5086008;28;20401;-74
2022/11/23 05:56:06;;;;;;;1.63;0.60;;;;;;;3.96;40.59;90975.88;5083132;28;20984;-74
2022/11/23 05:58:38;;;;;;;1.63;0.70;;;;;;;3.89;41.01;90979.88;5090239;28;20036;-77
2022/11/23 06:01:04;;;;;;;0.70;0.70;;;;;;;3.85;40.57;90989.25;5079282;28;20043;-75
2022/11/23 06:03:33;;;;;;;0.50;0.50;;;;;;;3.86;39.70;90981.22;5060597;28;20024;-77
2022/11/23 06:05:59;;;;;;;0.60;0.60;;;;;;;3.91;39.41;90999.25;5081604;28;20505;-75
2022/11/23 06:08:32;;;;;;;;;;;;;;;4.07;38.60;90997.19;5116737;27;20056;-75
2022/11/23 06:11:01;;;;;;;0.60;0.60;;;;;;;4.13;39.00;91005.69;5089859;28;19952;-74
2022/11/23 06:13:27;;;;;;;0.73;0.70;;;;;;;4.15;38.72;91014.69;5062127;28;20469;-74
2022/11/23 06:15:53;;;;;;;0.45;0.45;;;;;;;4.14;39.22;91007.19;5080578;28;20036;-74
2022/11/23 06:18:26;;;;;;;0.75;0.70;;;;;;;4.11;39.04;91015.53;5086022;28;20109;-74
2022/11/23 06:20:52;;;;;;;1.02;0.50;;;;;;;4.13;38.79;91019.38;5080172;28;20401;-73
2022/11/23 06:23:18;;;;;;;0.50;0.50;;;;;;;4.07;39.05;91020.50;5084963;28;20650;-74
2022/11/23 06:25:44;;;;;;;1.00;0.75;;;;;;;4.04;38.98;91018.50;5089700;28;20036;-73
2022/11/23 06:28:30;;;;;;;0.63;0.60;;;;;;;4.02;38.93;91019.81;5089237;28;20044;-73
2022/11/23 06:31:02;;;;;;;0.70;0.70;;;;;;;4.03;38.71;91032.50;5088431;28;20122;-73
2022/11/23 06:33:27;;;;;;;0.63;0.60;;;;;;;3.97;39.27;91036.19;5093388;28;20130;-74
2022/11/23 06:35:55;;;;;;;0.50;0.47;;;;;;;3.91;39.53;91043.25;5073225;28;20123;-76
2022/11/23 06:38:23;;;;;;;0.52;0.52;;;;;;;3.84;39.64;91053.19;5087999;28;20452;-76
2022/11/23 06:40:58;;;;;;;0.50;0.50;;;;;;;3.80;39.85;91054.81;5074869;28;20055;-76
2022/11/23 06:43:25;;;;;;;0.75;0.75;;;;;;;3.80;39.48;91059.22;5056742;28;20028;-76
2022/11/23 06:45:50;;;;;;;1.00;0.68;;;;;;;3.79;39.09;91063.63;5095816;28;20027;-75
2022/11/23 06:48:16;;;;;;;0.68;0.68;;;;;;;3.81;38.61;91077.06;5089685;28;20077;-75
2022/11/23 06:50:45;;;;;;;0.55;0.55;;;;;;;3.82;38.48;91068.25;5088307;28;20049;-75
2022/11/23 06:53:13;;;;;;;0.50;0.50;;;;;;;3.90;37.94;91080.56;5087096;28;20459;-76
2022/11/23 06:55:44;;;;;;;0.60;0.60;;;;;;;4.05;37.56;91079.56;5070731;28;20090;-75
2022/11/23 06:58:13;;;;;;;0.60;0.60;;;;;;;4.97;36.39;91085.19;5053676;28;20032;-75
2022/11/23 07:00:38;;;;;;;0.70;0.60;;;;;;;6.26;35.61;91081.72;5088878;28;20036;-76
2022/11/23 07:03:04;;;;;;;1.33;0.98;;;;;;;7.36;34.23;91096.00;5086827;28;20062;-75
2022/11/23 07:05:38;;;;;;;1.02;0.90;;;;;;;8.13;35.53;91086.91;5082982;28;20540;-76
2022/11/23 07:08:04;;;;;;;1.42;1.00;;;;;;;9.00;35.51;91095.84;5088923;28;20032;-76
2022/11/23 07:10:30;;;;;;;0.95;0.80;;;;;;;9.91;34.04;91091.25;5073032;28;20043;-76
2022/11/23 07:13:04;;;;;;;0.70;0.70;;;;;;;10.83;32.72;91090.53;5089190;28;20040;-75
2022/11/23 07:15:30;;;;;;;0.90;0.82;;;;;;;10.73;31.20;91098.75;5089818;28;20069;-76
2022/11/23 07:17:56;;;;;;;0.82;0.80;;;;;;;11.41;32.83;91107.06;5086205;28;20489;-76
2022/11/23 07:20:23;;;;;;;1.80;0.73;;;;;;;11.85;30.47;91109.22;5070091;28;20044;-76
2022/11/23 07:23:07;;;;;;;1.10;0.80;;;;;;;12.45;31.11;91120.03;5069863;28;20033;-76
2022/11/23 07:25:35;;;;;;;0.70;0.70;;;;;;;13.67;28.52;91113.63;5090146;28;20036;-76
2022/11/23 07:28:02;;;;;;;1.23;1.00;;;;;;;14.14;29.44;91122.66;5090099;28;20111;-76
2022/11/23 07:30:30;;;;;;;1.10;1.00;;;;;;;14.15;26.67;91117.03;5073341;28;20028;-76
2022/11/23 07:33:07;;;;;;;0.77;0.70;;;;;;;13.99;27.74;91113.66;5089983;28;20029;-76
2022/11/23 07:35:35;;;;;;;1.65;0.90;;;;;;;14.73;25.76;91105.91;5093531;28;20534;-77
2022/11/23 07:38:01;;;;;;;1.33;0.80;;;;;;;14.84;26.51;91115.91;5089984;28;20394;-77
2022/11/23 07:40:27;;;;;;;2.40;0.90;;;;;;;15.70;27.21;91113.03;5073360;28;20032;-77
2022/11/23 07:42:57;;;;;;;1.65;0.88;;;;;;;16.42;26.86;91116.84;5072749;28;20043;-77
2022/11/23 07:45:23;;;;;;;1.48;0.80;;;;;;;16.61;23.41;91123.91;5091125;28;20513;-76
2022/11/23 07:48:08;;;;;;;1.15;0.90;;;;;;;16.76;23.58;91120.34;5089733;28;20043;-77
2022/11/23 07:50:35;;;;;;;1.90;0.90;;;;;;;16.83;24.95;91119.72;5091130;28;20361;-76
2022/11/23 07:53:02;;;;;;;3.17;0.88;;;;;;;16.44;24.50;91125.19;5089591;28;20051;-77
2022/11/23 07:55:29;;;;;;;1.73;0.82;;;;;;;17.41;22.83;91118.53;5089532;28;20524;-77
2022/11/23 07:57:55;;;;;;;0.85;0.70;;;;;;;17.22;23.94;91117.56;5072783;28;20032;-76
2022/11/23 08:00:22;;;;;;;2.40;1.10;;;;;;;17.11;23.65;91116.66;5090634;28;20024;-76
2022/11/23 08:02:48;;;;;;;1.83;0.90;;;;;;;18.21;23.58;91112.91;5072903;28;20127;-77
2022/11/23 08:05:14;;;;;;;0.55;0.55;;;;;;;16.85;23.33;91112.19;5091025;28;20032;-77
2022/11/23 08:07:40;;;;;;;0.93;0.60;;;;;;;16.85;24.71;91120.88;5090333;28;20028;-77
2022/11/23 08:10:07;;;;;;;1.02;0.80;;;;;;;18.09;23.23;91127.94;5072454;28;20031;-75
2022/11/23 08:12:33;;;;;;;1.33;0.88;;;;;;;18.11;23.12;91124.94;5089375;28;20143;-76
2022/11/23 08:14:58;;;;;;;1.05;0.85;;;;;;;16.76;23.23;91130.94;5070562;28;20115;-77
2022/11/23 08:17:24;;;;;;;1.20;0.85;;;;;;;17.39;23.18;91134.00;5077800;28;20055;-77
2022/11/23 08:19:49;;;;;;;1.65;1.10;;;;;;;17.32;23.74;91134.69;5082326;28;20128;-77
2022/11/23 08:22:15;;;;;;;1.92;0.98;;;;;;;17.00;22.86;91134.28;5088720;28;20040;-76
2022/11/23 08:24:41;;;;;;;1.88;1.52;;;;;;;18.37;23.54;91131.94;5072931;28;20527;-77
2022/11/23 08:27:07;;;;;;;1.35;1.00;;;;;;;18.25;23.59;91140.94;5090491;28;20058;-77
2022/11/23 08:29:32;;;;;;;2.25;1.25;;;;;;;18.34;23.79;91140.63;5090868;28;20032;-76
2022/11/23 08:31:58;;;;;;;3.10;1.30;;;;;;;17.66;25.24;91148.66;5090821;28;20047;-76
2022/11/23 08:34:24;;;;;;;4.00;1.30;;;;;;;18.23;25.36;91145.06;5071877;28;20101;-76
2022/11/23 08:36:49;;;;;;;2.22;1.30;;;;;;;17.81;25.47;91144.31;5089145;28;20040;-77
2022/11/23 08:39:16;;;;;;;2.15;1.20;;;;;;;16.82;27.44;91142.00;5090637;28;20047;-77
2022/11/23 08:41:41;;;;;;;1.42;1.00;;;;;;;15.44;26.82;91147.97;5090570;28;20117;-77
2022/11/23 08:44:09;;;;;;;1.73;1.10;;;;;;;14.43;28.84;91160.13;5089118;28;20102;-77
2022/11/23 08:46:35;;;;;;;2.85;1.15;;;;;;;14.53;29.21;91157.00;5077271;28;20035;-77
2022/11/23 08:49:01;;;;;;;1.75;0.90;;;;;;;14.57;28.68;91163.13;5084023;28;20791;-76
2022/11/23 08:51:26;;;;;;;1.55;1.10;;;;;;;14.10;30.00;91158.63;5084784;28;20486;-76
2022/11/23 08:53:52;;;;;;;4.57;1.30;;;;;;;13.84;32.09;91165.13;5057932;28;20417;-76
2022/11/23 08:56:17;;;;;;;3.92;1.40;;;;;;;12.33;32.78;91162.03;5094499;28;20032;-76
2022/11/23 08:58:43;;;;;;;2.20;1.10;;;;;;;12.86;32.04;91166.25;5094204;28;20055;-76
2022/11/23 09:01:11;;;;;;;2.83;1.35;;;;;;;12.82;33.76;91164.63;5092843;28;20620;-75
2022/11/23 09:03:37;;;;;;;2.55;1.27;;;;;;;12.63;34.42;91162.56;5093975;28;20020;-76
2022/11/23 09:06:03;;;;;;;2.65;1.05;;;;;;;12.29;33.24;91164.56;5092882;28;20126;-76
2022/11/23 09:08:29;;;;;;;1.45;0.90;;;;;;;12.24;32.88;91168.16;5092690;28;20536;-76
2022/11/23 09:10:59;;;;;;;2.13;1.13;;;;;;;11.67;34.14;91171.56;5092699;28;20016;-76
2022/11/23 09:13:25;;;;;;;2.25;1.00;;;;;;;11.86;33.32;91171.78;5092588;28;20118;-76
2022/11/23 09:15:51;;;;;;;1.58;1.08;;;;;;;12.08;35.35;91175.16;5092841;28;20116;-76
2022/11/23 09:18:16;;;;;;;1.23;0.98;;;;;;;11.70;33.27;91181.38;5092470;28;20035;-76
2022/11/23 09:20:42;;;;;;;3.40;1.23;;;;;;;11.37;33.15;91178.75;5092294;28;20131;-76
2022/11/23 09:23:07;;;;;;;2.53;1.20;;;;;;;11.13;36.19;91182.81;5076210;28;20489;-77
2022/11/23 09:25:33;;;;;;;2.40;0.98;;;;;;;11.12;37.40;91183.13;5092352;28;20115;-76
2022/11/23 09:27:59;;;;;;;2.10;1.30;;;;;;;11.35;38.90;91186.19;5092375;28;20115;-76
2022/11/23 09:30:26;;;;;;;2.72;1.30;;;;;;;11.20;39.46;91184.94;5092127;28;20032;-76
2022/11/23 09:32:54;;;;;;;2.53;1.10;;;;;;;11.13;40.06;91184.69;5075489;28;20608;-76
2022/11/23 09:35:20;;;;;;;3.17;1.40;;;;;;;11.19;38.92;91183.38;5092108;28;20466;-76
2022/11/23 09:37:45;;;;;;;1.77;1.00;;;;;;;11.18;38.46;91182.63;5092179;28;20063;-76
2022/11/23 09:40:16;;;;;;;2.45;1.20;;;;;;;10.67;39.02;91184.53;5092196;28;20085;-78
2022/11/23 09:42:56;;;;;;;2.25;1.17;;;;;;;10.63;38.29;91181.78;5075201;28;20046;-76
2022/11/23 09:46:01;;;;;;;2.80;1.20;;;;;;;10.68;40.06;91190.56;5091990;28;20093;-76
2022/11/23 09:48:43;;;;;;;3.83;1.60;;;;;;;10.75;40.27;91188.19;5070376;28;20040;-76
2022/11/23 09:51:17;;;;;;;2.15;1.25;;;;;;;10.77;39.63;91188.63;5081414;28;20383;-76
2022/11/23 09:54:03;;;;;;;4.25;1.60;;;;;;;10.92;39.54;91184.66;5081767;28;20484;-76
2022/11/23 09:56:34;;;;;;;2.15;1.33;;;;;;;11.18;40.79;91189.72;5093156;28;20482;-77
2022/11/23 09:59:29;;;;;;;2.00;1.20;;;;;;;11.13;37.65;91192.53;5092968;28;20146;-76
2022/11/23 10:01:56;;;;;;;3.25;1.40;;;;;;;11.12;39.67;91193.63;5091680;28;20535;-76
2022/11/23 10:04:23;;;;;;;2.47;1.40;;;;;;;11.30;37.58;91197.63;5081243;28;20521;-76
2022/11/23 10:06:57;;;;;;;2.65;1.23;;;;;;;11.38;39.58;91190.78;5091236;28;20036;-76
2022/11/23 10:09:56;;;;;;;2.55;1.23;;;;;;;11.25;38.72;91198.59;5074489;28;20033;-76
2022/11/23 10:12:29;;;;;;;1.88;1.27;;;;;;;10.99;40.96;91180.47;5091665;28;20643;-76
2022/11/23 10:15:08;;;;;;;2.63;1.20;;;;;;;11.08;41.21;91187.47;5091514;28;20035;-77
2022/11/23 10:17:51;;;;;;;2.42;1.23;;;;;;;10.72;39.18;91196.69;5091468;28;20040;-76
2022/11/23 10:20:35;;;;;;;;;;;;;;;11.10;39.30;91193.97;5092965;28;20490;-76
2022/11/23 10:23:06;;;;;;;1.98;1.27;;;;;;;11.12;39.40;91194.38;5092510;28;20002;-76
2022/11/23 10:25:40;;;;;;;2.28;1.30;;;;;;;10.91;37.30;91185.78;5091534;28;20044;-77
2022/11/23 10:28:15;;;;;;;2.75;1.33;;;;;;;11.08;38.62;91190.09;5092006;28;20036;-76
2022/11/23 10:30:41;;;;;;;2.15;1.10;;;;;;;11.21;39.30;91189.06;5090102;28;20024;-76
2022/11/23 10:33:19;;;;;;;2.75;1.20;;;;;;;11.49;38.71;91191.94;5089903;28;20039;-76
2022/11/23 10:35:44;;;;;;;2.33;1.23;;;;;;;10.99;37.80;91193.56;5086726;28;20390;-76
2022/11/23 10:38:16;;;;;;;3.35;1.20;;;;;;;10.99;38.42;91196.19;5070868;28;20044;-76
2022/11/23 10:41:01;;;;;;;2.07;1.20;;;;;;;11.11;37.16;91192.09;5086222;28;20184;-77
2022/11/23 10:43:49;;;;;;;2.05;1.20;;;;;;;11.06;36.59;91194.91;5072290;28;20602;-77
2022/11/23 10:46:23;;;;;;;5.10;1.20;;;;;;;11.25;38.31;91188.09;5081435;28;20131;-76
2022/11/23 10:48:51;;;;;;;4.13;1.33;;;;;;;11.26;37.70;91188.91;5071106;28;20059;-76
2022/11/23 10:51:22;;;;;;;2.85;1.13;;;;;;;11.40;37.62;91189.38;5072442;28;20448;-77
2022/11/23 10:54:00;;;;;;;2.33;1.13;;;;;;;11.46;37.14;91192.59;5071729;28;20402;-76
2022/11/23 10:56:26;;;;;;;1.88;1.10;;;;;;;11.64;35.66;91190.53;5076955;28;20525;-76
2022/11/23 10:58:53;;;;;;;3.92;1.10;;;;;;;11.43;36.10;91188.72;5091463;28;20036;-76
2022/11/23 11:01:23;;;;;;;5.40;1.30;;;;;;;11.50;36.56;91188.19;5090790;28;20036;-76
2022/11/23 11:03:49;;;;;;;2.35;1.10;;;;;;;11.67;34.92;91192.53;5091781;28;20040;-76
2022/11/23 11:06:24;;;;;;;1.95;1.25;;;;;;;11.62;35.92;91195.34;5090537;28;20028;-76
2022/11/23 11:08:55;;;;;;;2.85;1.27;;;;;;;11.42;35.15;91189.06;5091606;28;20040;-77
2022/11/23 11:11:32;;;;;;;2.75;1.00;;;;;;;11.54;33.51;91198.81;5091722;28;20084;-77
2022/11/23 11:14:05;;;;;;;2.00;1.00;;;;;;;11.49;33.45;91196.41;5073383;28;20459;-77
2022/11/23 11:16:36;;;;;;;1.10;1.00;;;;;;;11.48;33.17;91192.25;5084029;28;20389;-76
2022/11/23 11:19:35;;;;;;;1.80;1.02;;;;;;;11.34;31.77;91200.38;5075600;28;20040;-78
2022/11/23 11:22:11;;;;;;;1.90;0.93;;;;;;;11.63;34.18;91192.41;5079605;28;20055;-78
2022/11/23 11:24:43;;;;;;;2.20;1.23;;;;;;;11.61;32.11;91193.81;5091971;28;20028;-77
2022/11/23 11:27:16;;;;;;;1.85;1.00;;;;;;;11.59;31.68;91190.75;5090077;28;20038;-78
2022/11/23 11:29:44;;;;;;;;;;;;;;;11.70;31.94;91197.13;5090513;28;20063;-77
2022/11/23 11:32:13;;;;;;;2.17;1.00;;;;;;;11.54;30.40;91193.56;5090077;28;19915;-76
2022/11/23 11:34:47;;;;;;;1.58;0.98;;;;;;;11.52;31.52;91201.00;5091399;28;20040;-77
2022/11/23 11:37:30;;;;;;;0.82;0.82;;;;;;;11.19;30.88;91199.09;5069607;28;20033;-76
2022/11/23 11:40:09;;;;;;;1.00;0.90;;;;;;;11.03;31.75;91199.69;5070973;28;20055;-76
2022/11/23 11:42:43;;;;;;;1.15;0.90;;;;;;;11.17;32.40;91201.31;5077327;28;20435;-77
2022/11/23 11:45:22;;;;;;;2.05;1.00;;;;;;;11.32;31.72;91198.06;5090627;28;20040;-80
2022/11/23 11:48:27;;;;;;;0.68;0.60;;;;;;;11.46;29.92;91208.31;5081762;28;20541;-78
2022/11/23 11:50:58;;;;;;;1.73;1.00;;;;;;;11.36;29.20;91209.44;5088722;28;20052;-76